sensor_id;sensor_type;location;lat;lon;timestamp;P1;durP1;ratioP1;P2;durP2;ratioP2
70543;SDS011;58097;48.364;-1.224;2022-11-14T07:34:43;11.80;;;8.65;;
70543;SDS011;58097;48.364;-1.224;2022-11-14T07:37:08;12.90;;;8.43;;
70543;SDS011;58097;48.364;-1.224;2022-11-14T07:39:34;11.15;;;8.27;;
70543;SDS011;58097;48.364;-1.224;2022-11-14T07:41:59;12.85;;;9.35;;
70543;SDS011;58097;48.364;-1.224;2022-11-14T07:44:24;15.98;;;8.88;;
70543;SDS011;58097;48.364;-1.224;2022-11-14T07:46:49;13.63;;;9.40;;
70543;SDS011;58097;48.364;-1.224;2022-11-14T07:49:15;12.63;;;9.70;;
70543;SDS011;58097;48.364;-1.224;2022-11-14T07:51:41;10.32;;;7.53;;
70543;SDS011;58097;48.364;-1.224;2022-11-14T07:54:09;11.05;;;7.93;;
70543;SDS011;58097;48.364;-1.224;2022-11-14T07:56:35;15.32;;;8.60;;
70543;SDS011;58097;48.364;-1.224;2022-11-14T07:59:00;11.82;;;8.00;;
70543;SDS011;58097;48.364;-1.224;2022-11-14T08:01:26;12.20;;;8.18;;
70543;SDS011;58097;48.364;-1.224;2022-11-14T08:03:51;11.07;;;7.85;;
70543;SDS011;58097;48.364;-1.224;2022-11-14T08:06:16;13.80;;;8.00;;
70543;SDS011;58097;48.364;-1.224;2022-11-14T08:08:42;10.57;;;8.82;;
70543;SDS011;58097;48.364;-1.224;2022-11-14T08:11:07;10.60;;;8.25;;
70543;SDS011;58097;48.364;-1.224;2022-11-14T08:13:33;12.73;;;8.95;;
70543;SDS011;58097;48.364;-1.224;2022-11-14T08:15:58;10.55;;;8.13;;
70543;SDS011;58097;48.364;-1.224;2022-11-14T08:18:27;10.75;;;7.57;;
70543;SDS011;58097;48.364;-1.224;2022-11-14T08:20:52;10.90;;;7.97;;
70543;SDS011;58097;48.364;-1.224;2022-11-14T08:23:21;8.98;;;7.15;;
70543;SDS011;58097;48.364;-1.224;2022-11-14T08:25:47;12.45;;;7.65;;
70543;SDS011;58097;48.364;-1.224;2022-11-14T08:28:12;10.55;;;7.32;;
70543;SDS011;58097;48.364;-1.224;2022-11-14T08:30:37;13.55;;;7.60;;
70543;SDS011;58097;48.364;-1.224;2022-11-14T08:33:03;13.18;;;7.47;;
70543;SDS011;58097;48.364;-1.224;2022-11-14T08:35:30;9.68;;;6.90;;
70543;SDS011;58097;48.364;-1.224;2022-11-14T08:37:56;10.00;;;7.38;;
70543;SDS011;58097;48.364;-1.224;2022-11-14T08:40:22;12.77;;;7.03;;
70543;SDS011;58097;48.364;-1.224;2022-11-14T08:42:47;11.27;;;8.63;;
70543;SDS011;58097;48.364;-1.224;2022-11-14T08:45:13;8.48;;;6.80;;
70543;SDS011;58097;48.364;-1.224;2022-11-14T08:47:38;9.25;;;7.57;;
70543;SDS011;58097;48.364;-1.224;2022-11-14T08:50:04;10.27;;;7.82;;
70543;SDS011;58097;48.364;-1.224;2022-11-14T08:52:29;14.00;;;7.82;;
70543;SDS011;58097;48.364;-1.224;2022-11-14T08:54:54;10.90;;;7.57;;
70543;SDS011;58097;48.364;-1.224;2022-11-14T08:57:20;15.50;;;8.18;;
70543;SDS011;58097;48.364;-1.224;2022-11-14T08:59:45;9.65;;;7.97;;
70543;SDS011;58097;48.364;-1.224;2022-11-14T09:02:11;16.38;;;8.55;;
70543;SDS011;58097;48.364;-1.224;2022-11-14T09:04:37;12.40;;;8.90;;
70543;SDS011;58097;48.364;-1.224;2022-11-14T09:07:03;13.75;;;7.65;;
70543;SDS011;58097;48.364;-1.224;2022-11-14T09:09:28;15.90;;;8.00;;
70543;SDS011;58097;48.364;-1.224;2022-11-14T09:11:53;12.80;;;8.25;;
70543;SDS011;58097;48.364;-1.224;2022-11-14T09:14:19;11.27;;;7.22;;
70543;SDS011;58097;48.364;-1.224;2022-11-14T09:16:46;9.05;;;6.90;;
70543;SDS011;58097;48.364;-1.224;2022-11-14T09:19:11;8.73;;;6.82;;
70543;SDS011;58097;48.364;-1.224;2022-11-14T09:21:37;14.02;;;8.23;;
70543;SDS011;58097;48.364;-1.224;2022-11-14T09:24:02;13.60;;;7.57;;
70543;SDS011;58097;48.364;-1.224;2022-11-14T09:26:28;11.48;;;6.95;;
70543;SDS011;58097;48.364;-1.224;2022-11-14T09:28:53;11.93;;;7.60;;
70543;SDS011;58097;48.364;-1.224;2022-11-14T09:31:18;11.45;;;8.43;;
70543;SDS011;58097;48.364;-1.224;2022-11-14T09:33:44;11.88;;;8.07;;
70543;SDS011;58097;48.364;-1.224;2022-11-14T09:36:10;13.48;;;8.93;;
70543;SDS011;58097;48.364;-1.224;2022-11-14T09:38:39;14.50;;;9.55;;
70543;SDS011;58097;48.364;-1.224;2022-11-14T09:41:23;14.07;;;8.68;;
70543;SDS011;58097;48.364;-1.224;2022-11-14T09:49:34;14.10;;;9.75;;
70543;SDS011;58097;48.364;-1.224;2022-11-14T09:54:56;15.00;;;7.43;;
70543;SDS011;58097;48.364;-1.224;2022-11-14T09:57:23;17.40;;;7.18;;
70543;SDS011;58097;48.364;-1.224;2022-11-14T09:59:49;9.20;;;6.75;;
70543;SDS011;58097;48.364;-1.224;2022-11-14T10:05:18;17.98;;;8.27;;
70543;SDS011;58097;48.364;-1.224;2022-11-14T10:10:42;16.00;;;7.55;;
70543;SDS011;58097;48.364;-1.224;2022-11-14T10:15:55;13.35;;;7.95;;
70543;SDS011;58097;48.364;-1.224;2022-11-14T10:18:32;13.27;;;8.45;;
70543;SDS011;58097;48.364;-1.224;2022-11-14T10:27:02;13.10;;;8.73;;
70543;SDS011;58097;48.364;-1.224;2022-11-14T10:35:46;13.35;;;8.32;;
70543;SDS011;58097;48.364;-1.224;2022-11-14T10:40:49;13.70;;;9.02;;
70543;SDS011;58097;48.364;-1.224;2022-11-14T10:48:32;18.00;;;9.43;;
70543;SDS011;58097;48.364;-1.224;2022-11-14T10:51:07;14.25;;;9.32;;
70543;SDS011;58097;48.364;-1.224;2022-11-14T10:56:18;11.73;;;8.57;;
70543;SDS011;58097;48.364;-1.224;2022-11-14T10:58:43;10.27;;;8.10;;
70543;SDS011;58097;48.364;-1.224;2022-11-14T11:09:36;11.15;;;7.80;;
70543;SDS011;58097;48.364;-1.224;2022-11-14T11:12:37;15.85;;;8.85;;
70543;SDS011;58097;48.364;-1.224;2022-11-14T11:20:31;16.15;;;9.75;;
70543;SDS011;58097;48.364;-1.224;2022-11-14T11:23:23;11.55;;;8.60;;
70543;SDS011;58097;48.364;-1.224;2022-11-14T11:25:57;15.48;;;9.73;;
70543;SDS011;58097;48.364;-1.224;2022-11-14T11:28:31;13.18;;;9.93;;
70543;SDS011;58097;48.364;-1.224;2022-11-14T11:30:59;13.55;;;8.70;;
70543;SDS011;58097;48.364;-1.224;2022-11-14T11:33:29;13.53;;;9.17;;
70543;SDS011;58097;48.364;-1.224;2022-11-14T11:35:57;11.43;;;8.07;;
70543;SDS011;58097;48.364;-1.224;2022-11-14T11:38:29;12.45;;;8.27;;
70543;SDS011;58097;48.364;-1.224;2022-11-14T11:41:41;14.45;;;8.43;;
70543;SDS011;58097;48.364;-1.224;2022-11-14T11:43:55;12.90;;;7.38;;
70543;SDS011;58097;48.364;-1.224;2022-11-14T11:46:33;12.32;;;8.27;;
70543;SDS011;58097;48.364;-1.224;2022-11-14T11:52:42;18.67;;;8.10;;
70543;SDS011;58097;48.364;-1.224;2022-11-14T11:55:13;13.57;;;7.88;;
70543;SDS011;58097;48.364;-1.224;2022-11-14T11:57:55;12.32;;;7.82;;
70543;SDS011;58097;48.364;-1.224;2022-11-14T12:00:23;12.63;;;7.90;;
70543;SDS011;58097;48.364;-1.224;2022-11-14T12:02:49;17.00;;;7.78;;
70543;SDS011;58097;48.364;-1.224;2022-11-14T12:05:17;10.90;;;7.90;;
70543;SDS011;58097;48.364;-1.224;2022-11-14T12:10:20;9.20;;;7.03;;
70543;SDS011;58097;48.364;-1.224;2022-11-14T12:19:11;17.95;;;7.63;;
70543;SDS011;58097;48.364;-1.224;2022-11-14T12:35:14;7.38;;;5.38;;
70543;SDS011;58097;48.364;-1.224;2022-11-14T12:37:48;7.55;;;5.32;;
70543;SDS011;58097;48.364;-1.224;2022-11-14T12:42:45;13.57;;;6.53;;
70543;SDS011;58097;48.364;-1.224;2022-11-14T12:48:20;9.55;;;6.72;;
70543;SDS011;58097;48.364;-1.224;2022-11-14T12:50:48;8.82;;;6.15;;
70543;SDS011;58097;48.364;-1.224;2022-11-14T13:01:31;10.05;;;5.25;;
70543;SDS011;58097;48.364;-1.224;2022-11-14T13:12:37;9.40;;;5.53;;
70543;SDS011;58097;48.364;-1.224;2022-11-14T13:15:28;9.55;;;5.72;;
70543;SDS011;58097;48.364;-1.224;2022-11-14T13:18:24;10.35;;;4.97;;
70543;SDS011;58097;48.364;-1.224;2022-11-14T13:21:19;10.10;;;4.22;;
70543;SDS011;58097;48.364;-1.224;2022-11-14T13:24:04;6.30;;;3.95;;
70543;SDS011;58097;48.364;-1.224;2022-11-14T13:28:55;5.80;;;2.50;;
70543;SDS011;58097;48.364;-1.224;2022-11-14T13:31:26;4.43;;;2.20;;
70543;SDS011;58097;48.364;-1.224;2022-11-14T13:50:31;2.38;;;0.80;;
70543;SDS011;58097;48.364;-1.224;2022-11-14T13:53:00;1.98;;;0.90;;
70543;SDS011;58097;48.364;-1.224;2022-11-14T13:55:37;1.60;;;0.82;;
70543;SDS011;58097;48.364;-1.224;2022-11-14T14:09:50;1.20;;;1.10;;
70543;SDS011;58097;48.364;-1.224;2022-11-14T14:15:43;1.55;;;1.27;;
70543;SDS011;58097;48.364;-1.224;2022-11-14T14:21:21;3.47;;;1.08;;
70543;SDS011;58097;48.364;-1.224;2022-11-14T14:24:15;0.95;;;0.80;;
70543;SDS011;58097;48.364;-1.224;2022-11-14T14:27:03;1.30;;;0.77;;
70543;SDS011;58097;48.364;-1.224;2022-11-14T14:32:18;0.73;;;0.52;;
70543;SDS011;58097;48.364;-1.224;2022-11-14T14:34:44;2.05;;;0.70;;
70543;SDS011;58097;48.364;-1.224;2022-11-14T14:37:20;3.03;;;0.63;;
70543;SDS011;58097;48.364;-1.224;2022-11-14T14:39:55;0.70;;;0.60;;
70543;SDS011;58097;48.364;-1.224;2022-11-14T14:42:37;2.58;;;0.55;;
70543;SDS011;58097;48.364;-1.224;2022-11-14T14:45:12;2.33;;;0.80;;
70543;SDS011;58097;48.364;-1.224;2022-11-14T14:47:40;1.08;;;0.63;;
70543;SDS011;58097;48.364;-1.224;2022-11-14T14:52:44;1.45;;;0.90;;
70543;SDS011;58097;48.364;-1.224;2022-11-14T14:55:20;3.33;;;0.70;;
70543;SDS011;58097;48.364;-1.224;2022-11-14T14:57:48;3.83;;;0.80;;
70543;SDS011;58097;48.364;-1.224;2022-11-14T15:00:21;1.90;;;0.70;;
70543;SDS011;58097;48.364;-1.224;2022-11-14T15:02:51;1.88;;;0.80;;
70543;SDS011;58097;48.364;-1.224;2022-11-14T15:05:22;4.78;;;0.90;;
70543;SDS011;58097;48.364;-1.224;2022-11-14T15:07:48;4.10;;;0.90;;
70543;SDS011;58097;48.364;-1.224;2022-11-14T15:10:18;2.75;;;1.10;;
70543;SDS011;58097;48.364;-1.224;2022-11-14T15:12:46;3.42;;;1.27;;
70543;SDS011;58097;48.364;-1.224;2022-11-14T15:15:12;1.13;;;0.95;;
70543;SDS011;58097;48.364;-1.224;2022-11-14T15:17:39;3.85;;;0.90;;
70543;SDS011;58097;48.364;-1.224;2022-11-14T15:20:16;4.90;;;2.20;;
70543;SDS011;58097;48.364;-1.224;2022-11-14T15:25:46;3.20;;;1.33;;
70543;SDS011;58097;48.364;-1.224;2022-11-14T15:28:13;1.20;;;1.10;;
70543;SDS011;58097;48.364;-1.224;2022-11-14T15:30:40;4.88;;;2.75;;
70543;SDS011;58097;48.364;-1.224;2022-11-14T15:33:23;2.88;;;0.90;;
70543;SDS011;58097;48.364;-1.224;2022-11-14T15:36:03;3.40;;;0.95;;
70543;SDS011;58097;48.364;-1.224;2022-11-14T15:38:34;2.05;;;1.10;;
70543;SDS011;58097;48.364;-1.224;2022-11-14T15:48:53;2.90;;;1.27;;
70543;SDS011;58097;48.364;-1.224;2022-11-14T15:51:36;2.25;;;0.90;;
70543;SDS011;58097;48.364;-1.224;2022-11-14T15:54:03;0.88;;;0.88;;
70543;SDS011;58097;48.364;-1.224;2022-11-14T15:56:28;4.75;;;0.90;;
70543;SDS011;58097;48.364;-1.224;2022-11-14T15:58:54;2.95;;;0.90;;
70543;SDS011;58097;48.364;-1.224;2022-11-14T16:01:21;4.38;;;1.20;;
70543;SDS011;58097;48.364;-1.224;2022-11-14T16:03:49;1.45;;;1.05;;
70543;SDS011;58097;48.364;-1.224;2022-11-14T16:06:15;3.05;;;2.22;;
70543;SDS011;58097;48.364;-1.224;2022-11-14T16:08:41;2.35;;;1.30;;
70543;SDS011;58097;48.364;-1.224;2022-11-14T16:11:06;4.28;;;1.80;;
70543;SDS011;58097;48.364;-1.224;2022-11-14T16:13:32;5.80;;;2.65;;
70543;SDS011;58097;48.364;-1.224;2022-11-14T16:15:57;6.57;;;2.95;;
70543;SDS011;58097;48.364;-1.224;2022-11-14T16:18:22;4.82;;;2.78;;
70543;SDS011;58097;48.364;-1.224;2022-11-14T16:20:48;3.28;;;2.20;;
70543;SDS011;58097;48.364;-1.224;2022-11-14T16:23:15;4.57;;;1.58;;
70543;SDS011;58097;48.364;-1.224;2022-11-14T16:25:40;3.05;;;1.60;;
70543;SDS011;58097;48.364;-1.224;2022-11-14T16:28:06;10.50;;;1.48;;
70543;SDS011;58097;48.364;-1.224;2022-11-14T16:30:31;3.33;;;1.52;;
70543;SDS011;58097;48.364;-1.224;2022-11-14T16:32:57;5.22;;;1.60;;
70543;SDS011;58097;48.364;-1.224;2022-11-14T16:35:23;5.65;;;2.03;;
70543;SDS011;58097;48.364;-1.224;2022-11-14T16:37:50;6.97;;;2.05;;
70543;SDS011;58097;48.364;-1.224;2022-11-14T16:40:18;7.90;;;1.60;;
70543;SDS011;58097;48.364;-1.224;2022-11-14T16:42:49;5.20;;;1.95;;
70543;SDS011;58097;48.364;-1.224;2022-11-14T16:45:15;5.80;;;1.50;;
70543;SDS011;58097;48.364;-1.224;2022-11-14T16:47:41;6.07;;;2.45;;
70543;SDS011;58097;48.364;-1.224;2022-11-14T16:50:07;4.05;;;1.88;;
70543;SDS011;58097;48.364;-1.224;2022-11-14T16:52:33;8.75;;;1.98;;
70543;SDS011;58097;48.364;-1.224;2022-11-14T16:54:58;2.88;;;1.70;;
70543;SDS011;58097;48.364;-1.224;2022-11-14T16:57:24;4.03;;;1.88;;
70543;SDS011;58097;48.364;-1.224;2022-11-14T16:59:49;8.65;;;3.17;;
70543;SDS011;58097;48.364;-1.224;2022-11-14T17:02:17;7.43;;;3.42;;
70543;SDS011;58097;48.364;-1.224;2022-11-14T17:04:43;9.70;;;3.80;;
70543;SDS011;58097;48.364;-1.224;2022-11-14T17:07:09;3.60;;;2.35;;
70543;SDS011;58097;48.364;-1.224;2022-11-14T17:09:36;3.60;;;1.85;;
70543;SDS011;58097;48.364;-1.224;2022-11-14T17:12:01;2.10;;;1.50;;
70543;SDS011;58097;48.364;-1.224;2022-11-14T17:14:27;5.22;;;1.70;;
70543;SDS011;58097;48.364;-1.224;2022-11-14T17:16:53;5.15;;;1.55;;
70543;SDS011;58097;48.364;-1.224;2022-11-14T17:19:18;3.95;;;1.27;;
70543;SDS011;58097;48.364;-1.224;2022-11-14T17:21:43;1.17;;;1.08;;
70543;SDS011;58097;48.364;-1.224;2022-11-14T17:24:09;4.15;;;1.88;;
70543;SDS011;58097;48.364;-1.224;2022-11-14T17:26:34;6.82;;;1.70;;
70543;SDS011;58097;48.364;-1.224;2022-11-14T17:29:01;5.97;;;2.40;;
70543;SDS011;58097;48.364;-1.224;2022-11-14T17:31:27;4.20;;;2.40;;
70543;SDS011;58097;48.364;-1.224;2022-11-14T17:33:54;6.00;;;2.03;;
70543;SDS011;58097;48.364;-1.224;2022-11-14T17:36:21;4.78;;;1.60;;
70543;SDS011;58097;48.364;-1.224;2022-11-14T17:38:47;2.47;;;2.25;;
70543;SDS011;58097;48.364;-1.224;2022-11-14T17:41:12;3.35;;;1.75;;
70543;SDS011;58097;48.364;-1.224;2022-11-14T17:43:38;2.08;;;1.58;;
70543;SDS011;58097;48.364;-1.224;2022-11-14T17:46:03;3.63;;;1.40;;
70543;SDS011;58097;48.364;-1.224;2022-11-14T17:48:29;7.70;;;1.88;;
70543;SDS011;58097;48.364;-1.224;2022-11-14T17:50:55;9.73;;;2.70;;
70543;SDS011;58097;48.364;-1.224;2022-11-14T17:53:28;5.55;;;1.70;;
70543;SDS011;58097;48.364;-1.224;2022-11-14T17:55:54;5.72;;;1.80;;
70543;SDS011;58097;48.364;-1.224;2022-11-14T17:58:21;4.78;;;2.35;;
70543;SDS011;58097;48.364;-1.224;2022-11-14T18:00:47;5.32;;;2.47;;
70543;SDS011;58097;48.364;-1.224;2022-11-14T18:03:12;5.75;;;1.88;;
70543;SDS011;58097;48.364;-1.224;2022-11-14T18:05:38;5.68;;;2.45;;
70543;SDS011;58097;48.364;-1.224;2022-11-14T18:08:03;5.45;;;2.90;;
70543;SDS011;58097;48.364;-1.224;2022-11-14T18:10:29;16.08;;;7.57;;
70543;SDS011;58097;48.364;-1.224;2022-11-14T18:12:54;29.15;;;14.88;;
70543;SDS011;58097;48.364;-1.224;2022-11-14T18:15:20;35.60;;;25.33;;
70543;SDS011;58097;48.364;-1.224;2022-11-14T18:17:45;15.10;;;8.75;;
70543;SDS011;58097;48.364;-1.224;2022-11-14T18:20:10;12.27;;;5.50;;
70543;SDS011;58097;48.364;-1.224;2022-11-14T18:22:36;7.57;;;3.78;;
70543;SDS011;58097;48.364;-1.224;2022-11-14T18:25:01;5.65;;;2.80;;
70543;SDS011;58097;48.364;-1.224;2022-11-14T18:27:27;2.95;;;2.53;;
70543;SDS011;58097;48.364;-1.224;2022-11-14T18:29:52;6.18;;;2.53;;
70543;SDS011;58097;48.364;-1.224;2022-11-14T18:32:17;6.93;;;3.17;;
70543;SDS011;58097;48.364;-1.224;2022-11-14T18:34:43;6.13;;;3.20;;
70543;SDS011;58097;48.364;-1.224;2022-11-14T18:37:08;10.75;;;3.42;;
70543;SDS011;58097;48.364;-1.224;2022-11-14T18:39:33;4.70;;;3.42;;
70543;SDS011;58097;48.364;-1.224;2022-11-14T18:41:59;7.03;;;4.20;;
70543;SDS011;58097;48.364;-1.224;2022-11-14T18:44:28;12.35;;;5.40;;
70543;SDS011;58097;48.364;-1.224;2022-11-14T18:46:53;14.30;;;5.25;;
70543;SDS011;58097;48.364;-1.224;2022-11-14T18:49:19;10.63;;;5.30;;
70543;SDS011;58097;48.364;-1.224;2022-11-14T18:51:44;11.20;;;4.68;;
70543;SDS011;58097;48.364;-1.224;2022-11-14T18:54:10;4.38;;;3.35;;
70543;SDS011;58097;48.364;-1.224;2022-11-14T18:56:37;5.25;;;3.17;;
70543;SDS011;58097;48.364;-1.224;2022-11-14T18:59:02;11.55;;;3.40;;
70543;SDS011;58097;48.364;-1.224;2022-11-14T19:01:28;11.23;;;3.53;;
70543;SDS011;58097;48.364;-1.224;2022-11-14T19:03:56;8.80;;;3.03;;
70543;SDS011;58097;48.364;-1.224;2022-11-14T19:06:26;7.93;;;3.13;;
70543;SDS011;58097;48.364;-1.224;2022-11-14T19:08:55;10.23;;;3.85;;
70543;SDS011;58097;48.364;-1.224;2022-11-14T19:11:21;9.27;;;3.10;;
70543;SDS011;58097;48.364;-1.224;2022-11-14T19:14:05;6.38;;;2.90;;
70543;SDS011;58097;48.364;-1.224;2022-11-14T19:16:31;11.32;;;3.00;;
70543;SDS011;58097;48.364;-1.224;2022-11-14T19:18:58;6.10;;;2.70;;
70543;SDS011;58097;48.364;-1.224;2022-11-14T19:21:24;11.85;;;4.03;;
70543;SDS011;58097;48.364;-1.224;2022-11-14T19:23:49;7.18;;;3.15;;
70543;SDS011;58097;48.364;-1.224;2022-11-14T19:26:15;9.38;;;3.00;;
70543;SDS011;58097;48.364;-1.224;2022-11-14T19:28:41;7.47;;;3.15;;
70543;SDS011;58097;48.364;-1.224;2022-11-14T19:31:06;8.77;;;3.60;;
70543;SDS011;58097;48.364;-1.224;2022-11-14T19:33:32;12.57;;;4.18;;
70543;SDS011;58097;48.364;-1.224;2022-11-14T19:36:03;12.38;;;3.47;;
70543;SDS011;58097;48.364;-1.224;2022-11-14T19:38:30;9.55;;;3.22;;
70543;SDS011;58097;48.364;-1.224;2022-11-14T19:40:55;9.07;;;3.53;;
70543;SDS011;58097;48.364;-1.224;2022-11-14T19:43:21;13.20;;;4.50;;
70543;SDS011;58097;48.364;-1.224;2022-11-14T19:45:46;15.85;;;5.57;;
70543;SDS011;58097;48.364;-1.224;2022-11-14T19:48:12;11.63;;;4.18;;
70543;SDS011;58097;48.364;-1.224;2022-11-14T19:50:38;8.95;;;4.63;;
70543;SDS011;58097;48.364;-1.224;2022-11-14T19:53:03;6.80;;;3.75;;
70543;SDS011;58097;48.364;-1.224;2022-11-14T19:55:29;11.02;;;4.38;;
70543;SDS011;58097;48.364;-1.224;2022-11-14T19:57:55;14.82;;;4.13;;
70543;SDS011;58097;48.364;-1.224;2022-11-14T20:00:22;8.70;;;3.42;;
70543;SDS011;58097;48.364;-1.224;2022-11-14T20:02:50;10.05;;;4.47;;
70543;SDS011;58097;48.364;-1.224;2022-11-14T20:05:16;7.13;;;3.63;;
70543;SDS011;58097;48.364;-1.224;2022-11-14T20:07:42;11.25;;;3.33;;
70543;SDS011;58097;48.364;-1.224;2022-11-14T20:10:07;9.68;;;3.65;;
70543;SDS011;58097;48.364;-1.224;2022-11-14T20:12:33;11.07;;;3.75;;
70543;SDS011;58097;48.364;-1.224;2022-11-14T20:14:59;8.15;;;3.47;;
70543;SDS011;58097;48.364;-1.224;2022-11-14T20:17:24;8.88;;;3.40;;
70543;SDS011;58097;48.364;-1.224;2022-11-14T20:19:49;10.98;;;3.67;;
70543;SDS011;58097;48.364;-1.224;2022-11-14T20:22:15;5.82;;;3.53;;
70543;SDS011;58097;48.364;-1.224;2022-11-14T20:24:41;10.27;;;3.67;;
70543;SDS011;58097;48.364;-1.224;2022-11-14T20:27:06;9.35;;;4.15;;
70543;SDS011;58097;48.364;-1.224;2022-11-14T20:29:32;10.98;;;4.45;;
70543;SDS011;58097;48.364;-1.224;2022-11-14T20:31:57;10.15;;;4.00;;
70543;SDS011;58097;48.364;-1.224;2022-11-14T20:34:23;12.80;;;3.50;;
70543;SDS011;58097;48.364;-1.224;2022-11-14T20:36:48;14.20;;;4.60;;
70543;SDS011;58097;48.364;-1.224;2022-11-14T20:39:13;9.43;;;4.07;;
70543;SDS011;58097;48.364;-1.224;2022-11-14T20:41:39;8.60;;;3.75;;
70543;SDS011;58097;48.364;-1.224;2022-11-14T20:44:04;6.65;;;3.88;;
70543;SDS011;58097;48.364;-1.224;2022-11-14T20:46:30;13.00;;;4.65;;
70543;SDS011;58097;48.364;-1.224;2022-11-14T20:48:55;5.25;;;3.55;;
70543;SDS011;58097;48.364;-1.224;2022-11-14T20:51:22;8.90;;;3.13;;
70543;SDS011;58097;48.364;-1.224;2022-11-14T20:53:49;7.28;;;3.17;;
70543;SDS011;58097;48.364;-1.224;2022-11-14T20:56:16;12.07;;;3.38;;
70543;SDS011;58097;48.364;-1.224;2022-11-14T20:58:43;7.80;;;3.25;;
70543;SDS011;58097;48.364;-1.224;2022-11-14T21:01:09;5.05;;;3.20;;
70543;SDS011;58097;48.364;-1.224;2022-11-14T21:03:36;6.72;;;3.05;;
70543;SDS011;58097;48.364;-1.224;2022-11-14T21:06:02;7.10;;;3.13;;
70543;SDS011;58097;48.364;-1.224;2022-11-14T21:08:28;6.22;;;4.03;;
70543;SDS011;58097;48.364;-1.224;2022-11-14T21:10:58;8.93;;;3.92;;
70543;SDS011;58097;48.364;-1.224;2022-11-14T21:13:25;5.95;;;3.40;;
70543;SDS011;58097;48.364;-1.224;2022-11-14T21:16:13;5.97;;;3.60;;
70543;SDS011;58097;48.364;-1.224;2022-11-14T21:18:41;8.10;;;3.35;;
70543;SDS011;58097;48.364;-1.224;2022-11-14T21:21:07;13.73;;;3.75;;
70543;SDS011;58097;48.364;-1.224;2022-11-14T21:23:35;6.60;;;3.88;;
70543;SDS011;58097;48.364;-1.224;2022-11-14T21:28:28;29.58;;;9.25;;
70543;SDS011;58097;48.364;-1.224;2022-11-14T21:30:55;22.05;;;8.80;;
70543;SDS011;58097;48.364;-1.224;2022-11-14T21:33:22;13.30;;;6.40;;
70543;SDS011;58097;48.364;-1.224;2022-11-14T21:35:48;8.52;;;4.95;;
70543;SDS011;58097;48.364;-1.224;2022-11-14T21:38:14;6.68;;;3.65;;
70543;SDS011;58097;48.364;-1.224;2022-11-14T21:40:39;11.00;;;3.50;;
70543;SDS011;58097;48.364;-1.224;2022-11-14T21:43:04;9.05;;;2.97;;
70543;SDS011;58097;48.364;-1.224;2022-11-14T21:45:30;8.52;;;3.33;;
70543;SDS011;58097;48.364;-1.224;2022-11-14T21:47:55;6.75;;;3.38;;
70543;SDS011;58097;48.364;-1.224;2022-11-14T21:50:21;7.38;;;3.92;;
70543;SDS011;58097;48.364;-1.224;2022-11-14T21:52:46;10.48;;;3.95;;
70543;SDS011;58097;48.364;-1.224;2022-11-14T21:55:12;7.18;;;4.00;;
70543;SDS011;58097;48.364;-1.224;2022-11-14T21:57:37;5.78;;;3.33;;
70543;SDS011;58097;48.364;-1.224;2022-11-14T22:00:02;7.50;;;3.45;;
70543;SDS011;58097;48.364;-1.224;2022-11-14T22:02:28;7.15;;;3.50;;
70543;SDS011;58097;48.364;-1.224;2022-11-14T22:05:11;5.38;;;3.38;;
70543;SDS011;58097;48.364;-1.224;2022-11-14T22:07:38;8.82;;;3.17;;
70543;SDS011;58097;48.364;-1.224;2022-11-14T22:10:05;10.20;;;3.17;;
70543;SDS011;58097;48.364;-1.224;2022-11-14T22:12:30;7.72;;;3.28;;
70543;SDS011;58097;48.364;-1.224;2022-11-14T22:14:59;10.98;;;2.47;;
70543;SDS011;58097;48.364;-1.224;2022-11-14T22:17:24;11.50;;;2.40;;
70543;SDS011;58097;48.364;-1.224;2022-11-14T22:19:49;6.05;;;2.40;;
70543;SDS011;58097;48.364;-1.224;2022-11-14T22:22:15;6.07;;;1.30;;
70543;SDS011;58097;48.364;-1.224;2022-11-14T22:24:40;6.07;;;2.03;;
70543;SDS011;58097;48.364;-1.224;2022-11-14T22:27:05;5.85;;;2.10;;
70543;SDS011;58097;48.364;-1.224;2022-11-14T22:29:31;4.63;;;2.00;;
70543;SDS011;58097;48.364;-1.224;2022-11-14T22:31:56;7.07;;;1.48;;
70543;SDS011;58097;48.364;-1.224;2022-11-14T22:34:21;4.18;;;1.67;;
70543;SDS011;58097;48.364;-1.224;2022-11-14T22:36:47;8.45;;;1.70;;
70543;SDS011;58097;48.364;-1.224;2022-11-14T22:39:12;12.45;;;2.40;;
70543;SDS011;58097;48.364;-1.224;2022-11-14T22:41:38;6.05;;;2.08;;
70543;SDS011;58097;48.364;-1.224;2022-11-14T22:44:03;6.03;;;2.10;;
70543;SDS011;58097;48.364;-1.224;2022-11-14T22:46:29;3.88;;;2.17;;
70543;SDS011;58097;48.364;-1.224;2022-11-14T22:48:54;5.82;;;1.80;;
70543;SDS011;58097;48.364;-1.224;2022-11-14T22:51:23;6.47;;;2.03;;
70543;SDS011;58097;48.364;-1.224;2022-11-14T22:53:51;6.60;;;1.95;;
70543;SDS011;58097;48.364;-1.224;2022-11-14T22:56:18;5.80;;;2.75;;
70543;SDS011;58097;48.364;-1.224;2022-11-14T22:58:46;4.22;;;2.50;;
70543;SDS011;58097;48.364;-1.224;2022-11-14T23:01:12;8.70;;;2.88;;
70543;SDS011;58097;48.364;-1.224;2022-11-14T23:03:42;8.00;;;2.25;;
70543;SDS011;58097;48.364;-1.224;2022-11-14T23:06:12;3.70;;;1.70;;
70543;SDS011;58097;48.364;-1.224;2022-11-14T23:08:39;9.80;;;1.90;;
70543;SDS011;58097;48.364;-1.224;2022-11-14T23:11:06;9.55;;;2.28;;
70543;SDS011;58097;48.364;-1.224;2022-11-14T23:13:44;6.57;;;2.38;;
70543;SDS011;58097;48.364;-1.224;2022-11-14T23:16:15;5.45;;;2.45;;
70543;SDS011;58097;48.364;-1.224;2022-11-14T23:18:45;7.40;;;3.35;;
70543;SDS011;58097;48.364;-1.224;2022-11-14T23:21:12;5.45;;;2.33;;
70543;SDS011;58097;48.364;-1.224;2022-11-14T23:23:55;10.05;;;2.50;;
70543;SDS011;58097;48.364;-1.224;2022-11-14T23:26:25;10.10;;;2.45;;
70543;SDS011;58097;48.364;-1.224;2022-11-14T23:28:53;14.88;;;2.90;;
70543;SDS011;58097;48.364;-1.224;2022-11-14T23:31:19;3.78;;;2.10;;
70543;SDS011;58097;48.364;-1.224;2022-11-14T23:33:45;10.82;;;2.50;;
70543;SDS011;58097;48.364;-1.224;2022-11-14T23:36:11;3.53;;;1.88;;
70543;SDS011;58097;48.364;-1.224;2022-11-14T23:38:36;15.88;;;2.50;;
70543;SDS011;58097;48.364;-1.224;2022-11-14T23:41:01;10.00;;;2.58;;
70543;SDS011;58097;48.364;-1.224;2022-11-14T23:43:27;9.52;;;2.60;;
70543;SDS011;58097;48.364;-1.224;2022-11-14T23:45:54;9.27;;;2.53;;
70543;SDS011;58097;48.364;-1.224;2022-11-14T23:48:20;8.13;;;1.88;;
70543;SDS011;58097;48.364;-1.224;2022-11-14T23:50:49;5.68;;;1.73;;
70543;SDS011;58097;48.364;-1.224;2022-11-14T23:53:16;6.35;;;1.90;;
70543;SDS011;58097;48.364;-1.224;2022-11-14T23:55:41;14.25;;;3.20;;
70543;SDS011;58097;48.364;-1.224;2022-11-14T23:58:07;6.50;;;1.77;;
